createdAt,value
2017-11-08T00:00:03.277Z,1007.16
2017-11-08T00:01:03.271Z,1007.16
2017-11-08T00:02:03.265Z,1007.19
2017-11-08T00:03:03.259Z,1007.19
2017-11-08T00:04:03.254Z,1007.12
2017-11-08T00:05:03.249Z,1007.14
2017-11-08T00:06:03.243Z,1007.11
2017-11-08T00:07:03.239Z,1007.14
2017-11-08T00:08:03.232Z,1007.11
2017-11-08T00:09:03.228Z,1007.08
2017-11-08T00:10:03.223Z,1007.09
2017-11-08T00:11:03.218Z,1007.11
2017-11-08T00:12:03.210Z,1007.08
2017-11-08T00:13:03.208Z,1007.08
2017-11-08T00:14:03.202Z,1007.11
2017-11-08T00:15:03.196Z,1007.11
2017-11-08T00:16:03.190Z,1007.10
2017-11-08T00:17:03.184Z,1007.08
2017-11-08T00:18:03.179Z,1007.08
2017-11-08T00:19:03.175Z,1007.07
2017-11-08T00:20:03.169Z,1007.04
2017-11-08T00:21:03.165Z,1007.02
2017-11-08T00:22:03.160Z,1007.00
2017-11-08T00:23:03.154Z,1007.01
2017-11-08T00:24:03.149Z,1007.02
2017-11-08T00:25:03.144Z,1006.98
2017-11-08T00:26:03.138Z,1006.94
2017-11-08T00:27:03.132Z,1006.98
2017-11-08T00:28:03.130Z,1006.93
2017-11-08T00:29:03.124Z,1006.95
2017-11-08T00:30:03.117Z,1006.97
2017-11-08T00:31:03.111Z,1007.00
2017-11-08T00:32:03.106Z,1006.99
2017-11-08T00:33:03.100Z,1006.97
2017-11-08T00:34:03.096Z,1006.93
2017-11-08T00:35:03.092Z,1006.94
2017-11-08T00:36:03.085Z,1006.91
2017-11-08T00:37:03.079Z,1006.90
2017-11-08T00:38:03.074Z,1006.93
2017-11-08T00:39:03.069Z,1006.90
2017-11-08T00:54:18.380Z,1006.94
2017-11-08T00:55:18.373Z,1007.00
2017-11-08T00:56:18.368Z,1006.98
2017-11-08T00:57:18.363Z,1006.96
2017-11-08T00:58:18.358Z,1006.97
2017-11-08T00:59:18.353Z,1006.97
2017-11-08T01:00:18.346Z,1006.94
2017-11-08T01:01:18.342Z,1006.93
2017-11-08T01:02:18.338Z,1006.96
2017-11-08T01:03:18.330Z,1006.91
2017-11-08T01:04:18.325Z,1006.93
2017-11-08T01:05:18.320Z,1006.96
2017-11-08T01:06:18.322Z,1006.95
2017-11-08T01:07:18.308Z,1006.97
2017-11-08T01:08:18.303Z,1006.94
2017-11-08T01:09:18.298Z,1006.92
2017-11-08T01:10:18.293Z,1006.90
2017-11-08T01:11:18.287Z,1006.91
2017-11-08T01:12:18.281Z,1006.96
2017-11-08T01:13:18.277Z,1006.92
2017-11-08T01:14:18.271Z,1006.96
2017-11-08T01:15:18.264Z,1006.96
2017-11-08T01:16:18.260Z,1006.93
2017-11-08T01:17:18.254Z,1006.92
2017-11-08T01:18:18.250Z,1006.95
2017-11-08T01:19:18.243Z,1006.97
2017-11-08T01:20:18.238Z,1006.92
2017-11-08T01:21:18.233Z,1006.94
2017-11-08T01:22:18.227Z,1006.85
2017-11-08T01:23:18.222Z,1006.86
2017-11-08T01:24:18.220Z,1006.89
2017-11-08T01:25:18.212Z,1006.85
2017-11-08T01:26:18.206Z,1006.83
2017-11-08T01:27:18.199Z,1006.86
2017-11-08T01:28:18.193Z,1006.84
2017-11-08T01:29:18.189Z,1006.79
2017-11-08T01:30:18.183Z,1006.75
2017-11-08T01:31:18.177Z,1006.75
2017-11-08T01:32:18.171Z,1006.72
2017-11-08T01:33:18.167Z,1006.69
2017-11-08T01:34:18.162Z,1006.65
2017-11-08T01:35:18.155Z,1006.64
2017-11-08T01:36:18.151Z,1006.63
2017-11-08T01:37:18.144Z,1006.63
2017-11-08T01:38:18.139Z,1006.63
2017-11-08T01:39:18.134Z,1006.66
2017-11-08T01:40:18.128Z,1006.62
2017-11-08T01:41:18.122Z,1006.67
2017-11-08T01:42:18.116Z,1006.62
2017-11-08T01:43:18.111Z,1006.65
2017-11-08T01:44:18.105Z,1006.63
2017-11-08T01:45:18.100Z,1006.65
2017-11-08T01:46:18.103Z,1006.66
2017-11-08T01:47:18.087Z,1006.65
2017-11-08T01:48:18.082Z,1006.72
2017-11-08T01:49:18.079Z,1006.72
2017-11-08T01:50:18.072Z,1006.70
2017-11-08T01:51:18.068Z,1006.76
2017-11-08T01:52:18.061Z,1006.77
2017-11-08T01:53:18.056Z,1006.72
2017-11-08T01:54:18.049Z,1006.74
2017-11-08T01:55:18.044Z,1006.76
2017-11-08T01:56:18.038Z,1006.73
2017-11-08T01:57:18.032Z,1006.75
2017-11-08T01:58:18.030Z,1006.75
2017-11-08T01:59:18.021Z,1006.74
2017-11-08T02:00:18.016Z,1006.75
2017-11-08T02:01:18.011Z,1006.77
2017-11-08T02:02:18.005Z,1006.74
2017-11-08T02:03:17.998Z,1006.72
2017-11-08T02:04:17.994Z,1006.73
2017-11-08T02:05:17.990Z,1006.71
2017-11-08T02:06:17.986Z,1006.71
2017-11-08T02:07:17.977Z,1006.71
2017-11-08T02:08:17.980Z,1006.72
2017-11-08T02:09:17.968Z,1006.70
2017-11-08T02:10:17.960Z,1006.68
2017-11-08T02:11:17.955Z,1006.72
2017-11-08T02:12:17.949Z,1006.76
2017-11-08T02:13:17.944Z,1006.76
2017-11-08T02:14:17.939Z,1006.73
2017-11-08T02:15:17.932Z,1006.72
2017-11-08T02:16:17.928Z,1006.76
2017-11-08T02:17:17.925Z,1006.81
2017-11-08T02:18:17.917Z,1006.76
2017-11-08T02:19:17.912Z,1006.81
2017-11-08T02:20:17.905Z,1006.80
2017-11-08T02:21:17.901Z,1006.82
2017-11-08T02:22:17.895Z,1006.85
2017-11-08T02:23:17.889Z,1006.85
2017-11-08T02:24:17.885Z,1006.86
2017-11-08T02:25:17.879Z,1006.87
2017-11-08T02:26:17.872Z,1006.95
2017-11-08T02:27:17.866Z,1006.92
2017-11-08T02:28:17.864Z,1006.92
2017-11-08T02:29:17.857Z,1006.93
2017-11-08T02:30:17.852Z,1006.99
2017-11-08T02:31:17.845Z,1006.98
2017-11-08T02:32:17.841Z,1007.01
2017-11-08T02:33:17.835Z,1007.01
2017-11-08T02:34:17.838Z,1006.97
2017-11-08T02:35:17.825Z,1006.96
2017-11-08T02:36:17.820Z,1006.97
2017-11-08T02:37:17.814Z,1006.96
2017-11-08T02:38:17.814Z,1006.99
2017-11-08T02:39:17.802Z,1007.01
2017-11-08T02:40:17.797Z,1007.04
2017-11-08T02:41:17.792Z,1007.02
2017-11-08T02:42:17.787Z,1007.04
2017-11-08T02:43:17.780Z,1007.06
2017-11-08T02:44:17.776Z,1007.08
2017-11-08T02:45:17.772Z,1007.06
2017-11-08T02:46:17.767Z,1007.07
2017-11-08T02:47:17.760Z,1007.05
2017-11-08T02:48:17.755Z,1007.03
2017-11-08T02:49:17.749Z,1007.06
2017-11-08T02:50:17.744Z,1007.04
2017-11-08T02:51:17.738Z,1007.06
2017-11-08T02:52:17.732Z,1007.03
2017-11-08T02:53:17.727Z,1007.04
2017-11-08T02:54:17.722Z,1007.05
2017-11-08T02:55:17.716Z,1007.03
2017-11-08T02:56:17.716Z,1006.99
2017-11-08T02:57:17.706Z,1006.94
2017-11-08T02:58:17.701Z,1006.91
2017-11-08T02:59:17.695Z,1006.90
2017-11-08T03:00:17.694Z,1006.83
2017-11-08T03:01:17.688Z,1006.84
2017-11-08T03:02:17.679Z,1006.81
2017-11-08T03:03:17.674Z,1006.88
2017-11-08T03:04:17.667Z,1006.76
2017-11-08T03:05:17.662Z,1006.70
2017-11-08T03:06:17.657Z,1006.68
2017-11-08T03:07:17.651Z,1006.58
2017-11-08T03:08:17.647Z,1006.57
2017-11-08T03:09:17.641Z,1006.57
2017-11-08T03:10:17.636Z,1006.52
2017-11-08T03:11:17.630Z,1006.53
2017-11-08T03:12:17.625Z,1006.49
2017-11-08T03:13:17.619Z,1006.43
2017-11-08T03:14:17.615Z,1006.43
2017-11-08T03:15:17.608Z,1006.42
2017-11-08T03:16:17.604Z,1006.41
2017-11-08T03:17:17.598Z,1006.42
2017-11-08T03:18:17.593Z,1006.41
2017-11-08T03:19:17.586Z,1006.44
2017-11-08T03:20:17.582Z,1006.47
2017-11-08T03:21:17.585Z,1006.44
2017-11-08T03:22:17.572Z,1006.36
2017-11-08T03:23:17.565Z,1006.36
2017-11-08T03:24:17.561Z,1006.39
2017-11-08T03:25:17.555Z,1006.40
2017-11-08T03:26:17.550Z,1006.36
2017-11-08T03:27:17.545Z,1006.38
2017-11-08T03:28:17.545Z,1006.41
2017-11-08T03:29:17.534Z,1006.38
2017-11-08T03:30:17.529Z,1006.38
2017-11-08T03:31:17.524Z,1006.38
2017-11-08T03:32:17.519Z,1006.37
2017-11-08T03:33:17.512Z,1006.35
2017-11-08T03:34:17.507Z,1006.37
2017-11-08T03:35:17.503Z,1006.35
2017-11-08T03:36:17.497Z,1006.36
2017-11-08T03:37:17.491Z,1006.37
2017-11-08T03:38:17.486Z,1006.44
2017-11-08T03:39:17.480Z,1006.46
2017-11-08T03:40:17.477Z,1006.39
2017-11-08T03:41:17.475Z,1006.41
2017-11-08T03:42:17.468Z,1006.39
2017-11-08T03:43:17.457Z,1006.40
2017-11-08T03:44:17.454Z,1006.44
2017-11-08T03:45:17.449Z,1006.40
2017-11-08T03:46:17.443Z,1006.39
2017-11-08T03:47:17.437Z,1006.38
2017-11-08T03:48:17.433Z,1006.40
2017-11-08T03:49:17.429Z,1006.38
2017-11-08T03:50:17.423Z,1006.36
2017-11-08T03:51:17.416Z,1006.40
2017-11-08T03:52:17.410Z,1006.36
2017-11-08T03:53:17.406Z,1006.35
2017-11-08T03:54:17.400Z,1006.33
2017-11-08T03:55:17.394Z,1006.38
2017-11-08T03:56:17.389Z,1006.41
2017-11-08T03:57:17.383Z,1006.44
2017-11-08T03:58:17.379Z,1006.41
2017-11-08T03:59:17.373Z,1006.41
2017-11-08T04:00:17.367Z,1006.44
2017-11-08T04:01:17.363Z,1006.46
2017-11-08T04:02:17.359Z,1006.42
2017-11-08T04:03:17.352Z,1006.43
2017-11-08T04:04:17.346Z,1006.42
2017-11-08T04:05:17.342Z,1006.47
2017-11-08T04:06:17.336Z,1006.44
2017-11-08T04:07:17.329Z,1006.48
2017-11-08T04:08:17.324Z,1006.46
2017-11-08T04:09:17.320Z,1006.46
2017-11-08T04:10:17.315Z,1006.46
2017-11-08T04:11:17.309Z,1006.48
2017-11-08T04:12:17.305Z,1006.45
2017-11-08T04:13:17.299Z,1006.47
2017-11-08T04:14:17.294Z,1006.49
2017-11-08T04:15:17.288Z,1006.48
2017-11-08T04:16:17.283Z,1006.50
2017-11-08T04:17:17.277Z,1006.48
2017-11-08T04:18:17.280Z,1006.47
2017-11-08T04:19:17.266Z,1006.47
2017-11-08T04:20:17.264Z,1006.46
2017-11-08T04:21:17.256Z,1006.52
2017-11-08T04:22:17.252Z,1006.54
2017-11-08T04:23:17.252Z,1006.52
2017-11-08T04:24:17.241Z,1006.54
2017-11-08T04:25:17.236Z,1006.52
2017-11-08T04:26:17.231Z,1006.52
2017-11-08T04:27:17.225Z,1006.55
2017-11-08T04:28:17.219Z,1006.56
2017-11-08T04:29:17.220Z,1006.57
2017-11-08T04:30:17.210Z,1006.53
2017-11-08T04:31:17.206Z,1006.56
2017-11-08T04:32:17.198Z,1006.59
2017-11-08T04:33:17.194Z,1006.59
2017-11-08T04:34:17.189Z,1006.60
2017-11-08T04:35:17.184Z,1006.61
2017-11-08T04:36:17.178Z,1006.60
2017-11-08T04:37:17.173Z,1006.61
2017-11-08T04:38:17.167Z,1006.64
2017-11-08T04:39:17.162Z,1006.63
2017-11-08T04:40:17.174Z,1006.64
2017-11-08T04:41:17.152Z,1006.65
2017-11-08T04:42:17.146Z,1006.63
2017-11-08T04:43:17.139Z,1006.67
2017-11-08T04:44:17.136Z,1006.69
2017-11-08T04:45:17.131Z,1006.70
2017-11-08T04:46:17.126Z,1006.69
2017-11-08T04:47:17.120Z,1006.68
2017-11-08T04:48:17.115Z,1006.66
2017-11-08T04:49:17.112Z,1006.65
2017-11-08T04:50:17.105Z,1006.66
2017-11-08T04:51:17.099Z,1006.65
2017-11-08T04:52:17.092Z,1006.66
2017-11-08T04:53:17.088Z,1006.64
2017-11-08T04:54:17.083Z,1006.69
2017-11-08T04:55:17.077Z,1006.69
2017-11-08T04:56:17.085Z,1006.71
2017-11-08T04:57:17.067Z,1006.70
2017-11-08T04:58:17.062Z,1006.71
2017-11-08T04:59:17.056Z,1006.68
2017-11-08T05:00:17.053Z,1006.73
2017-11-08T05:01:17.047Z,1006.74
2017-11-08T05:02:17.041Z,1006.68
2017-11-08T05:03:17.035Z,1006.67
2017-11-08T05:04:17.031Z,1006.65
2017-11-08T05:05:17.024Z,1006.59
2017-11-08T05:06:17.030Z,1006.58
2017-11-08T05:07:17.014Z,1006.55
2017-11-08T05:08:17.009Z,1006.63
2017-11-08T05:09:17.004Z,1006.60
2017-11-08T05:10:16.999Z,1006.71
2017-11-08T05:11:16.993Z,1006.77
2017-11-08T05:12:16.989Z,1006.77
2017-11-08T05:13:16.982Z,1006.79
2017-11-08T05:14:16.978Z,1006.75
2017-11-08T05:15:16.972Z,1006.75
2017-11-08T05:16:16.966Z,1006.76
2017-11-08T05:17:16.961Z,1006.68
2017-11-08T05:18:16.955Z,1006.64
2017-11-08T05:19:16.949Z,1006.68
2017-11-08T05:20:16.943Z,1006.73
2017-11-08T05:21:16.940Z,1006.73
2017-11-08T05:22:16.935Z,1006.74
2017-11-08T05:23:16.929Z,1006.78
2017-11-08T05:24:16.924Z,1006.77
2017-11-08T05:25:16.920Z,1006.76
2017-11-08T05:26:16.917Z,1006.77
2017-11-08T05:27:16.908Z,1006.73
2017-11-08T05:28:16.902Z,1006.71
2017-11-08T05:29:16.901Z,1006.68
2017-11-08T05:30:16.892Z,1006.77
2017-11-08T05:31:16.888Z,1006.79
2017-11-08T05:32:16.880Z,1006.77
2017-11-08T05:33:16.876Z,1006.77
2017-11-08T05:34:16.871Z,1006.86
2017-11-08T05:35:16.864Z,1006.87
2017-11-08T05:36:16.859Z,1006.90
2017-11-08T05:37:16.855Z,1006.82
2017-11-08T05:38:16.848Z,1006.82
2017-11-08T05:39:16.843Z,1006.71
2017-11-08T05:40:16.839Z,1006.71
2017-11-08T05:41:16.832Z,1006.66
2017-11-08T05:42:16.827Z,1006.58
2017-11-08T05:43:16.822Z,1006.54
2017-11-08T05:44:16.815Z,1006.48
2017-11-08T05:45:16.812Z,1006.52
2017-11-08T05:46:16.806Z,1006.51
2017-11-08T05:47:16.800Z,1006.55
2017-11-08T05:48:16.796Z,1006.57
2017-11-08T05:49:16.790Z,1006.55
2017-11-08T05:50:16.784Z,1006.55
2017-11-08T05:51:16.779Z,1006.52
2017-11-08T05:52:16.773Z,1006.56
2017-11-08T05:53:16.768Z,1006.59
2017-11-08T05:54:16.763Z,1006.57
2017-11-08T05:55:16.756Z,1006.53
2017-11-08T05:56:16.752Z,1006.53
2017-11-08T05:57:16.746Z,1006.54
2017-11-08T05:58:16.746Z,1006.49
2017-11-08T05:59:16.737Z,1006.46
2017-11-08T06:00:16.731Z,1006.51
2017-11-08T06:01:16.727Z,1006.55
2017-11-08T06:02:16.721Z,1006.57
2017-11-08T06:03:16.714Z,1006.58
2017-11-08T06:04:16.709Z,1006.60
2017-11-08T06:05:16.704Z,1006.64
2017-11-08T06:06:16.703Z,1006.67
2017-11-08T06:07:16.693Z,1006.65
2017-11-08T06:08:16.688Z,1006.63
2017-11-08T06:09:16.682Z,1006.67
2017-11-08T06:10:16.677Z,1006.70
2017-11-08T06:11:16.672Z,1006.77
2017-11-08T06:12:16.667Z,1006.78
2017-11-08T06:13:16.662Z,1006.81
2017-11-08T06:14:16.657Z,1006.78
2017-11-08T06:15:16.654Z,1006.78
2017-11-08T06:16:16.647Z,1006.83
2017-11-08T06:17:16.640Z,1006.81
2017-11-08T06:18:16.635Z,1006.76
2017-11-08T06:19:16.629Z,1006.88
2017-11-08T06:20:16.624Z,1006.88
2017-11-08T06:21:16.620Z,1006.89
2017-11-08T06:22:16.615Z,1006.89
2017-11-08T06:23:16.608Z,1006.88
2017-11-08T06:24:16.603Z,1006.84
2017-11-08T06:25:16.599Z,1006.85
2017-11-08T06:26:16.593Z,1006.89
2017-11-08T06:27:16.589Z,1006.96
2017-11-08T06:28:16.586Z,1007.01
2017-11-08T06:29:16.579Z,1006.98
2017-11-08T06:30:16.572Z,1006.95
2017-11-08T06:31:16.570Z,1006.96
2017-11-08T06:32:16.561Z,1006.99
2017-11-08T06:33:16.556Z,1006.99
2017-11-08T06:34:16.552Z,1007.00
2017-11-08T06:35:16.546Z,1007.00
2017-11-08T06:36:16.540Z,1006.97
2017-11-08T06:37:16.536Z,1006.96
2017-11-08T06:38:16.531Z,1006.88
2017-11-08T06:39:16.525Z,1006.85
2017-11-08T06:40:16.521Z,1006.90
2017-11-08T06:41:16.515Z,1006.93
2017-11-08T06:42:16.510Z,1006.95
2017-11-08T06:43:16.504Z,1006.99
2017-11-08T06:44:16.499Z,1007.05
2017-11-08T06:45:16.494Z,1007.08
2017-11-08T06:46:16.489Z,1007.10
2017-11-08T06:47:16.487Z,1007.08
2017-11-08T06:48:16.480Z,1007.08
2017-11-08T06:49:16.474Z,1007.11
2017-11-08T06:50:16.470Z,1007.09
2017-11-08T06:51:16.462Z,1007.14
2017-11-08T06:52:16.458Z,1007.12
2017-11-08T06:53:16.453Z,1007.13
2017-11-08T06:54:16.448Z,1007.17
2017-11-08T06:55:16.442Z,1007.12
2017-11-08T06:56:16.436Z,1007.13
2017-11-08T06:57:16.432Z,1007.05
2017-11-08T06:58:16.427Z,1007.04
2017-11-08T06:59:16.422Z,1007.06
2017-11-08T07:00:16.417Z,1007.12
2017-11-08T07:01:16.412Z,1007.21
2017-11-08T07:02:16.406Z,1007.30
2017-11-08T07:03:16.400Z,1007.36
2017-11-08T07:04:16.394Z,1007.38
2017-11-08T07:05:16.390Z,1007.39
2017-11-08T07:06:16.385Z,1007.40
2017-11-08T07:07:16.380Z,1007.38
2017-11-08T07:08:16.379Z,1007.33
2017-11-08T07:09:16.521Z,1007.27
2017-11-08T07:10:16.366Z,1007.30
2017-11-08T07:11:16.360Z,1007.26
2017-11-08T07:12:16.356Z,1007.22
2017-11-08T07:13:16.349Z,1007.26
2017-11-08T07:14:16.344Z,1007.26
2017-11-08T07:15:16.339Z,1007.28
2017-11-08T07:16:16.333Z,1007.35
2017-11-08T07:17:16.328Z,1007.34
2017-11-08T07:18:16.325Z,1007.44
2017-11-08T07:19:16.318Z,1007.42
2017-11-08T07:20:16.315Z,1007.47
2017-11-08T07:21:16.309Z,1007.47
2017-11-08T07:22:16.303Z,1007.45
2017-11-08T07:23:16.298Z,1007.48
2017-11-08T07:24:16.293Z,1007.45
2017-11-08T07:25:16.287Z,1007.46
2017-11-08T07:26:16.283Z,1007.49
2017-11-08T07:27:16.277Z,1007.53
2017-11-08T07:28:16.272Z,1007.59
2017-11-08T07:29:16.268Z,1007.60
2017-11-08T07:30:16.263Z,1007.65
2017-11-08T07:31:16.260Z,1007.68
2017-11-08T07:32:16.253Z,1007.68
2017-11-08T07:33:16.247Z,1007.71
2017-11-08T07:34:16.243Z,1007.74
2017-11-08T07:35:16.239Z,1007.73
2017-11-08T07:36:16.232Z,1007.70
2017-11-08T07:37:16.227Z,1007.71
2017-11-08T07:38:16.222Z,1007.70
2017-11-08T07:39:16.216Z,1007.70
2017-11-08T07:40:16.211Z,1007.74
2017-11-08T07:41:16.207Z,1007.74
2017-11-08T07:42:16.204Z,1007.75
2017-11-08T07:43:16.197Z,1007.74
2017-11-08T07:44:16.191Z,1007.74
2017-11-08T07:45:16.187Z,1007.76
2017-11-08T07:46:16.182Z,1007.77
2017-11-08T07:47:16.176Z,1007.78
2017-11-08T07:48:16.174Z,1007.82
2017-11-08T07:49:16.168Z,1007.84
2017-11-08T07:50:16.164Z,1007.86
2017-11-08T07:51:16.158Z,1007.91
2017-11-08T07:52:16.153Z,1007.84
2017-11-08T07:53:16.147Z,1007.73
2017-11-08T07:54:16.142Z,1007.68
2017-11-08T07:55:16.137Z,1007.63
2017-11-08T07:56:16.132Z,1007.58
2017-11-08T07:57:16.127Z,1007.63
2017-11-08T07:58:16.122Z,1007.65
2017-11-08T07:59:16.117Z,1007.65
2017-11-08T08:00:16.112Z,1007.67
2017-11-08T08:01:16.108Z,1007.69
2017-11-08T08:02:16.103Z,1007.66
2017-11-08T08:03:16.101Z,1007.67
2017-11-08T08:04:16.094Z,1007.64
2017-11-08T08:05:16.087Z,1007.57
2017-11-08T08:06:16.082Z,1007.54
2017-11-08T08:07:16.077Z,1007.57
2017-11-08T08:08:16.073Z,1007.58
2017-11-08T08:09:16.068Z,1007.67
2017-11-08T08:10:16.063Z,1007.70
2017-11-08T08:11:16.057Z,1007.77
2017-11-08T08:12:16.052Z,1007.79
2017-11-08T08:13:16.048Z,1007.78
2017-11-08T08:14:16.044Z,1007.77
2017-11-08T08:15:16.038Z,1007.70
2017-11-08T08:16:16.044Z,1007.77
2017-11-08T08:17:16.028Z,1007.79
2017-11-08T08:18:16.024Z,1007.79
2017-11-08T08:19:16.019Z,1007.78
2017-11-08T08:20:16.014Z,1007.83
2017-11-08T08:21:16.008Z,1007.80
2017-11-08T08:22:16.004Z,1007.75
2017-11-08T08:23:15.999Z,1007.75
2017-11-08T08:24:15.993Z,1007.85
2017-11-08T08:25:15.989Z,1007.83
2017-11-08T08:26:15.985Z,1007.82
2017-11-08T08:27:15.978Z,1007.92
2017-11-08T08:28:15.974Z,1007.90
2017-11-08T08:29:15.970Z,1007.99
2017-11-08T08:30:15.965Z,1008.01
2017-11-08T08:31:15.958Z,1008.00
2017-11-08T08:32:15.954Z,1007.96
2017-11-08T08:33:15.950Z,1008.00
2017-11-08T08:34:15.945Z,1008.00
2017-11-08T08:35:15.939Z,1008.08
2017-11-08T08:36:15.935Z,1008.08
2017-11-08T08:37:15.936Z,1008.07
2017-11-08T08:38:15.925Z,1008.09
2017-11-08T08:39:15.923Z,1008.10
2017-11-08T08:40:15.920Z,1008.09
2017-11-08T08:41:16.012Z,1008.08
2017-11-08T08:42:15.905Z,1008.09
2017-11-08T08:43:15.904Z,1008.06
2017-11-08T08:44:15.896Z,1008.10
2017-11-08T08:45:15.892Z,1008.13
2017-11-08T08:46:15.886Z,1008.12
2017-11-08T08:47:15.880Z,1008.11
2017-11-08T08:48:15.880Z,1008.14
2017-11-08T08:49:15.875Z,1008.13
2017-11-08T08:50:15.866Z,1008.14
2017-11-08T08:51:15.863Z,1008.11
2017-11-08T08:52:15.857Z,1008.06
2017-11-08T08:53:15.851Z,1007.98
2017-11-08T08:54:15.846Z,1007.96
2017-11-08T08:55:15.842Z,1008.00
2017-11-08T08:56:15.835Z,1008.01
2017-11-08T08:57:15.833Z,1008.09
2017-11-08T08:58:15.827Z,1008.10
2017-11-08T08:59:15.822Z,1008.17
2017-11-08T09:00:15.816Z,1008.17
2017-11-08T09:01:15.812Z,1008.16
2017-11-08T09:02:15.806Z,1008.18
2017-11-08T09:03:15.806Z,1008.22
2017-11-08T09:04:15.797Z,1008.21
2017-11-08T09:05:15.792Z,1008.19
2017-11-08T09:06:15.788Z,1008.27
2017-11-08T09:07:15.794Z,1008.21
2017-11-08T09:08:15.778Z,1008.23
2017-11-08T09:09:15.776Z,1008.21
2017-11-08T09:10:15.767Z,1008.20
2017-11-08T09:11:15.862Z,1008.22
2017-11-08T09:12:15.757Z,1008.21
2017-11-08T09:13:15.755Z,1008.23
2017-11-08T09:14:15.749Z,1008.24
2017-11-08T09:15:15.742Z,1008.26
2017-11-08T09:16:15.737Z,1008.24
2017-11-08T09:17:15.732Z,1008.29
2017-11-08T09:18:15.727Z,1008.29
2017-11-08T09:19:15.727Z,1008.34
2017-11-08T09:20:15.718Z,1008.35
2017-11-08T09:21:15.712Z,1008.42
2017-11-08T09:22:15.708Z,1008.44
2017-11-08T09:23:15.701Z,1008.44
2017-11-08T09:24:15.698Z,1008.45
2017-11-08T09:25:15.693Z,1008.50
2017-11-08T09:26:15.789Z,1008.49
2017-11-08T09:27:15.682Z,1008.50
2017-11-08T09:28:15.678Z,1008.47
2017-11-08T09:29:15.673Z,1008.50
2017-11-08T09:30:15.668Z,1008.49
2017-11-08T09:31:15.663Z,1008.43
2017-11-08T09:32:15.657Z,1008.42
2017-11-08T09:33:15.653Z,1008.35
2017-11-08T09:34:15.649Z,1008.31
2017-11-08T09:35:15.643Z,1008.32
2017-11-08T09:36:15.639Z,1008.31
2017-11-08T09:37:15.640Z,1008.30
2017-11-08T09:38:15.629Z,1008.30
2017-11-08T09:39:15.625Z,1008.32
2017-11-08T09:40:15.619Z,1008.33
2017-11-08T09:41:15.613Z,1008.33
2017-11-08T09:42:15.609Z,1008.32
2017-11-08T09:43:15.605Z,1008.32
2017-11-08T09:44:15.600Z,1008.33
2017-11-08T09:45:15.597Z,1008.39
2017-11-08T09:46:15.640Z,1008.41
2017-11-08T09:47:15.585Z,1008.34
2017-11-08T09:48:15.580Z,1008.40
2017-11-08T09:49:15.576Z,1008.39
2017-11-08T09:50:15.570Z,1008.35
2017-11-08T09:51:15.567Z,1008.34
2017-11-08T09:52:15.560Z,1008.34
2017-11-08T09:53:15.556Z,1008.30
2017-11-08T09:54:15.557Z,1008.33
2017-11-08T09:55:15.551Z,1008.35
2017-11-08T09:56:15.542Z,1008.36
2017-11-08T09:57:15.536Z,1008.40
2017-11-08T09:58:15.532Z,1008.46
2017-11-08T09:59:15.526Z,1008.49
2017-11-08T10:00:15.522Z,1008.48
2017-11-08T10:01:15.517Z,1008.47
2017-11-08T10:02:15.514Z,1008.50
2017-11-08T10:03:15.510Z,1008.51
2017-11-08T10:04:15.504Z,1008.57
2017-11-08T10:05:15.499Z,1008.57
2017-11-08T10:06:15.494Z,1008.60
2017-11-08T10:07:15.521Z,1008.60
2017-11-08T10:08:15.500Z,1008.58
2017-11-08T10:09:15.512Z,1008.58
2017-11-08T10:10:15.507Z,1008.57
2017-11-08T10:11:15.472Z,1008.57
2017-11-08T10:12:15.469Z,1008.56
2017-11-08T10:13:15.479Z,1008.57
2017-11-08T10:14:15.458Z,1008.52
2017-11-08T10:15:15.481Z,1008.56
2017-11-08T10:16:15.447Z,1008.57
2017-11-08T10:17:15.443Z,1008.58
2017-11-08T10:18:15.440Z,1008.57
2017-11-08T10:19:15.438Z,1008.57
2017-11-08T10:20:15.430Z,1008.60
2017-11-08T10:21:15.449Z,1008.62
2017-11-08T10:22:15.421Z,1008.57
2017-11-08T10:23:15.416Z,1008.56
2017-11-08T10:24:15.412Z,1008.50
2017-11-08T10:25:15.407Z,1008.57
2017-11-08T10:26:15.406Z,1008.55
2017-11-08T10:27:15.404Z,1008.55
2017-11-08T10:28:15.395Z,1008.56
2017-11-08T10:29:15.389Z,1008.57
2017-11-08T10:30:15.385Z,1008.56
2017-11-08T10:31:15.381Z,1008.59
2017-11-08T10:32:15.382Z,1008.58
2017-11-08T10:33:15.371Z,1008.60
2017-11-08T10:34:15.374Z,1008.55
2017-11-08T10:35:15.364Z,1008.52
2017-11-08T10:36:15.358Z,1008.52
2017-11-08T10:37:15.353Z,1008.54
2017-11-08T10:38:15.351Z,1008.56
2017-11-08T10:39:15.345Z,1008.61
2017-11-08T10:40:15.342Z,1008.57
2017-11-08T10:41:15.337Z,1008.56
2017-11-08T10:42:15.299Z,1008.55
2017-11-08T10:43:15.292Z,1008.50
2017-11-08T10:44:15.295Z,1008.52
2017-11-08T10:45:15.284Z,1008.47
2017-11-08T10:46:15.280Z,1008.52
2017-11-08T10:47:15.278Z,1008.56
2017-11-08T10:48:15.273Z,1008.59
2017-11-08T10:49:15.266Z,1008.55
2017-11-08T10:50:15.262Z,1008.53
2017-11-08T10:51:15.257Z,1008.52
2017-11-08T10:52:15.252Z,1008.52
2017-11-08T10:53:15.248Z,1008.57
2017-11-08T10:54:15.243Z,1008.57
2017-11-08T10:55:15.239Z,1008.63
2017-11-08T10:56:15.234Z,1008.57
2017-11-08T10:57:15.230Z,1008.61
2017-11-08T10:58:15.225Z,1008.57
2017-11-08T10:59:15.221Z,1008.61
2017-11-08T11:00:15.215Z,1008.58
2017-11-08T11:01:15.214Z,1008.59
2017-11-08T11:02:15.215Z,1008.54
2017-11-08T11:03:15.206Z,1008.53
2017-11-08T11:04:15.204Z,1008.55
2017-11-08T11:05:15.198Z,1008.53
2017-11-08T11:06:15.194Z,1008.57
2017-11-08T11:07:15.188Z,1008.57
2017-11-08T11:08:15.184Z,1008.58
2017-11-08T11:09:15.203Z,1008.56
2017-11-08T11:10:15.177Z,1008.58
2017-11-08T11:11:15.175Z,1008.60
2017-11-08T11:12:15.167Z,1008.56
2017-11-08T11:13:15.163Z,1008.56
2017-11-08T11:14:15.160Z,1008.56
2017-11-08T11:15:15.158Z,1008.50
2017-11-08T11:16:15.152Z,1008.48
2017-11-08T11:17:15.149Z,1008.38
2017-11-08T11:18:15.145Z,1008.35
2017-11-08T11:19:15.140Z,1008.37
2017-11-08T11:20:15.136Z,1008.38
2017-11-08T11:21:15.133Z,1008.43
2017-11-08T11:22:15.130Z,1008.44
2017-11-08T11:23:15.125Z,1008.48
2017-11-08T11:24:15.121Z,1008.48
2017-11-08T11:25:15.117Z,1008.49
2017-11-08T11:26:15.114Z,1008.53
2017-11-08T11:27:15.109Z,1008.57
2017-11-08T11:28:15.106Z,1008.59
2017-11-08T11:29:15.102Z,1008.64
2017-11-08T11:30:15.099Z,1008.68
2017-11-08T11:31:15.094Z,1008.72
2017-11-08T11:32:15.090Z,1008.66
2017-11-08T11:33:15.087Z,1008.66
2017-11-08T11:34:15.082Z,1008.65
2017-11-08T11:35:15.079Z,1008.61
2017-11-08T11:36:15.075Z,1008.61
2017-11-08T11:37:15.073Z,1008.55
2017-11-08T11:38:15.068Z,1008.58
2017-11-08T11:39:15.064Z,1008.59
2017-11-08T11:40:15.063Z,1008.63
2017-11-08T11:41:15.057Z,1008.67
2017-11-08T11:42:15.053Z,1008.73
2017-11-08T11:43:15.048Z,1008.74
2017-11-08T11:44:15.044Z,1008.78
2017-11-08T11:45:15.040Z,1008.81
2017-11-08T11:46:15.037Z,1008.78
2017-11-08T11:47:15.033Z,1008.82
2017-11-08T11:48:15.035Z,1008.82
2017-11-08T11:49:15.026Z,1008.81
2017-11-08T11:50:15.024Z,1008.81
2017-11-08T11:51:15.019Z,1008.76
2017-11-08T11:52:15.014Z,1008.78
2017-11-08T11:53:15.012Z,1008.75
2017-11-08T11:54:15.008Z,1008.70
2017-11-08T11:55:15.010Z,1008.67
2017-11-08T11:56:15.001Z,1008.69
2017-11-08T11:57:14.997Z,1008.74
2017-11-08T11:58:14.993Z,1008.71
2017-11-08T11:59:14.987Z,1008.72
2017-11-08T12:00:14.986Z,1008.73
2017-11-08T12:01:14.983Z,1008.69
2017-11-08T12:02:14.979Z,1008.72
2017-11-08T12:03:14.973Z,1008.71
2017-11-08T12:04:14.972Z,1008.73
2017-11-08T12:05:14.967Z,1008.78
2017-11-08T12:06:14.966Z,1008.76
2017-11-08T12:07:14.959Z,1008.73
2017-11-08T12:08:14.956Z,1008.76
2017-11-08T12:09:14.952Z,1008.75
2017-11-08T12:10:14.952Z,1008.77
2017-11-08T12:11:14.947Z,1008.73
2017-11-08T12:12:14.941Z,1008.75
2017-11-08T12:13:14.939Z,1008.77
2017-11-08T12:14:14.934Z,1008.75
2017-11-08T12:15:14.932Z,1008.73
2017-11-08T12:16:14.927Z,1008.70
2017-11-08T12:17:14.922Z,1008.70
2017-11-08T12:18:14.921Z,1008.63
2017-11-08T12:19:14.916Z,1008.59